Date,TemperatureHighF,TemperatureAvgF,TemperatureLowF,DewpointHighF,DewpointAvgF,DewpointLowF,HumidityHigh,HumidityAvg,HumidityLow,PressureMaxIn,PressureMinIn,WindSpeedMaxMPH,WindSpeedAvgMPH,GustSpeedMaxMPH,PrecipitationSumIn
2013-1-1,64.4,58.5,54.2,64.0,57.6,53.0,98,96,93,30.05,29.89,15,4,22,0.04
2013-1-2,54.6,49.5,43.8,53.0,46.5,43.0,95,89,82,30.17,30.00,17,8,21,0.05
2013-1-3,48.3,42.9,37.5,43.0,36.0,29.0,96,78,49,30.34,30.16,16,6,21,0.03
2013-1-4,53.4,44.9,36.2,41.0,33.1,28.0,76,64,38,30.41,30.30,9,4,17,0.03
2013-1-5,52.6,48.8,44.2,40.0,35.6,31.0,66,61,53,30.33,30.20,12,3,17,0.00
2013-1-6,51.4,48.2,44.1,48.0,43.7,37.0,94,85,59,30.26,30.13,19,6,22,0.11
2013-1-7,53.9,48.2,39.3,48.0,42.5,37.0,93,81,60,30.29,30.15,11,2,14,0.11
2013-1-8,58.4,54.1,48.5,57.0,51.0,42.0,97,89,72,30.18,30.08,12,4,13,0.00
2013-1-9,59.6,57.7,56.2,59.0,57.1,55.0,99,97,94,30.17,30.08,9,6,13,0.01
2013-1-14,55.3,46.3,42.3,55.0,39.9,-99.9,99,92,97,30.08,0.00,19,-54,26,0.20
2013-1-15,58.6,51.6,45.4,58.0,51.4,45.0,100,99,98,30.03,29.91,9,3,14,0.01
2013-1-16,51.1,44.5,39.1,51.0,43.1,37.0,99,95,89,30.07,29.92,19,8,22,0.01
2013-1-17,52.5,43.6,37.3,38.0,35.8,33.0,95,75,52,30.36,30.08,24,10,29,0.01
2013-1-18,53.7,45.3,36.6,45.0,39.1,34.0,91,80,63,30.48,30.36,20,5,21,0.00
2013-1-19,56.5,48.7,39.5,52.0,44.7,35.0,94,86,67,30.36,30.21,8,3,12,0.00
2013-1-20,58.0,51.8,43.6,54.0,49.4,43.0,97,91,78,30.24,30.11,9,3,10,0.00
2013-1-21,65.2,54.4,45.4,52.0,46.9,42.0,97,78,46,30.18,30.10,10,2,15,0.01
2013-1-22,54.0,48.7,41.3,44.0,38.3,30.0,80,68,50,30.33,30.17,9,3,14,0.01
2013-1-23,59.8,53.6,42.3,55.0,49.2,40.0,92,85,79,30.38,30.27,12,3,13,0.00
2013-1-24,63.4,58.2,52.3,58.0,55.1,50.0,95,89,81,30.32,30.20,13,4,16,0.00
2013-1-25,65.5,59.9,55.3,60.0,57.4,54.0,96,92,80,30.25,30.12,11,3,14,0.01
2013-1-26,66.8,61.4,55.3,63.0,59.7,55.0,98,94,86,30.23,30.15,7,2,11,0.01
2013-1-27,63.1,60.9,57.5,63.0,60.5,56.0,99,98,96,30.28,30.20,7,2,10,0.01
2013-1-28,66.1,63.6,61.5,64.0,62.9,61.0,99,97,93,30.24,30.10,11,4,14,0.01
2013-1-29,67.3,65.6,64.1,67.0,65.5,64.0,100,100,99,30.10,29.81,18,6,19,0.09
2013-1-30,68.6,59.4,45.4,68.0,53.2,33.0,100,82,49,30.13,29.67,26,12,39,0.71
2013-1-31,60.2,50.6,41.6,42.0,34.4,26.0,77,56,27,30.30,30.14,18,6,21,0.71
2013-2-1,56.3,51.9,46.1,47.0,41.2,35.0,82,67,57,30.37,30.28,11,3,19,0.00
2013-2-2,60.3,52.0,38.6,56.0,45.2,29.0,93,78,63,30.32,30.16,9,3,12,0.00
2013-2-3,60.8,55.9,48.3,55.0,47.8,40.0,92,75,57,30.25,30.10,12,4,15,0.00
2013-2-4,59.0,54.9,48.5,57.0,48.1,35.0,97,79,53,30.09,29.93,11,2,13,0.31
2013-2-5,64.3,59.7,56.6,61.0,58.2,56.0,98,94,88,30.00,29.90,8,2,13,0.02
2013-2-6,61.9,58.4,54.4,60.0,57.5,54.0,99,96,93,30.11,29.97,10,3,13,0.01
2013-2-7,74.4,64.4,58.7,62.0,59.8,56.0,98,85,64,29.96,29.76,21,5,32,1.08
2013-2-8,70.6,61.0,55.1,62.0,57.5,50.0,97,88,71,30.13,29.92,13,3,17,1.09
2013-2-9,62.1,55.6,48.5,60.0,52.4,45.0,94,89,83,30.21,30.05,13,6,15,0.00
2013-2-10,66.5,63.9,62.0,66.0,59.7,-99.9,99,93,90,30.05,29.92,21,1,26,0.00
2013-2-11,68.2,61.3,57.4,68.0,60.0,55.0,100,95,84,30.08,29.95,17,6,23,0.12
2013-2-12,66.9,61.2,56.9,67.0,60.5,56.0,99,97,95,30.01,29.72,16,6,21,0.01
2013-2-13,65.5,52.4,44.0,65.0,49.5,41.0,99,90,82,30.05,29.77,16,5,30,0.01
2013-2-14,54.1,47.3,40.2,46.0,42.3,39.0,95,83,72,30.14,30.02,10,2,11,0.01
2013-2-15,59.1,52.2,41.3,48.0,44.0,39.0,94,75,54,30.15,30.04,10,4,16,0.01
2013-2-16,52.9,47.6,38.7,42.0,28.5,18.0,75,51,26,30.26,30.09,24,8,32,0.01
2013-2-17,54.7,45.6,34.5,43.0,32.2,23.0,68,60,51,30.36,30.23,14,5,17,0.01
2013-2-18,61.0,58.1,54.6,58.0,52.4,44.0,92,81,67,30.22,29.98,20,13,23,0.00
2013-2-19,66.1,59.2,47.2,59.0,44.3,29.0,97,63,26,30.20,29.95,25,8,39,0.50
2013-2-20,55.4,49.1,43.3,42.0,32.5,25.0,66,53,45,30.23,30.02,13,6,20,0.06
2013-2-21,61.9,56.5,48.7,61.0,52.0,38.0,98,85,60,30.02,29.79,15,7,20,0.06
2013-2-22,68.1,63.3,57.7,67.0,58.8,52.0,99,86,56,29.95,29.83,15,4,20,0.01
2013-2-23,60.0,57.5,55.7,58.0,55.2,51.0,97,92,83,29.92,29.78,17,5,20,0.12
2013-2-24,61.2,56.0,47.9,59.0,52.8,46.0,97,89,80,29.95,29.75,13,5,17,0.32
2013-2-25,65.9,61.3,59.5,65.0,60.2,53.0,98,96,73,29.76,29.46,22,10,50,1.94
2013-2-26,62.0,54.5,48.2,51.0,42.1,36.0,76,63,57,29.90,29.51,27,9,28,0.12
2013-2-27,60.2,55.9,49.5,55.0,47.5,42.0,87,74,56,30.01,29.89,18,4,20,0.01
2013-2-28,56.6,51.1,44.9,45.0,36.4,27.0,77,59,35,30.09,29.98,16,5,20,0.01
2013-3-1,60.5,49.8,41.0,39.0,33.7,29.0,80,57,33,30.13,29.98,19,4,24,0.00
2013-3-2,49.0,41.1,35.6,32.0,28.1,25.0,78,61,47,30.22,30.09,19,6,27,0.00
2013-3-3,55.3,43.5,31.2,42.0,27.9,21.0,74,57,30,30.25,30.12,18,6,19,0.00
2013-3-4,59.0,53.3,49.8,55.0,44.6,-99.9,89,78,69,30.13,29.95,15,-22,18,0.00
2013-3-5,75.3,61.0,51.3,62.0,53.3,40.0,94,78,42,30.14,29.92,15,7,22,0.00
2013-3-6,62.2,51.7,42.6,42.0,30.6,26.0,71,47,26,30.28,30.14,15,6,25,0.00
2013-3-7,54.0,47.6,40.1,45.0,37.2,31.0,84,67,59,30.33,30.20,10,3,13,0.00
2013-3-8,60.0,53.1,42.3,53.0,45.3,38.0,91,76,57,30.27,30.17,9,2,13,0.00
2013-3-9,62.7,58.2,51.9,60.0,55.0,48.0,95,89,78,30.17,29.96,20,5,22,0.00
2013-3-10,65.1,63.5,61.8,64.0,61.8,60.0,97,94,91,30.00,29.86,18,9,23,0.05
2013-3-11,64.9,55.6,48.3,64.0,51.0,41.0,98,85,61,29.98,29.80,27,8,31,0.03
2013-3-12,66.2,53.5,41.8,48.0,39.5,36.0,88,62,35,30.17,29.98,10,4,17,0.03
2013-3-13,66.4,55.8,45.6,41.0,31.6,23.0,73,44,21,30.35,30.17,19,7,25,0.00
2013-3-14,58.1,51.1,41.9,49.0,35.1,26.0,75,55,41,30.42,30.27,11,6,15,0.00
2013-3-15,64.4,58.4,50.5,57.0,51.1,46.0,88,77,64,30.29,30.12,16,7,19,0.00
2013-3-16,69.0,63.0,58.5,62.0,58.9,56.0,93,87,69,30.12,29.95,15,6,18,0.00
2013-3-17,66.7,64.3,62.5,64.0,62.0,60.0,95,92,89,29.97,29.84,16,4,18,0.00
2013-3-18,70.7,66.8,63.9,68.0,65.4,62.0,98,95,89,29.88,29.74,14,4,17,0.00
2013-3-19,67.9,63.2,57.1,67.0,58.5,50.0,99,85,72,30.00,29.84,16,4,18,0.01
2013-3-20,66.8,59.3,51.7,50.0,38.8,32.0,70,48,29,30.10,29.94,18,6,25,0.01
2013-3-21,59.8,53.4,45.6,49.0,37.3,31.0,68,55,44,30.04,29.86,13,7,17,0.01
2013-3-22,64.0,62.5,59.8,62.0,56.6,49.0,93,81,62,29.87,29.77,18,9,21,0.10
2013-3-23,67.0,64.8,62.8,67.0,63.6,60.0,99,96,90,29.83,29.56,14,5,17,0.04
2013-3-24,73.0,65.1,49.0,69.0,55.0,32.0,99,73,30,29.95,29.55,27,9,32,0.04
2013-3-25,58.7,47.3,38.3,34.0,28.2,20.0,74,51,23,30.21,29.95,24,9,32,0.00
2013-3-26,55.8,45.9,36.1,30.0,26.7,22.0,71,49,30,30.35,30.21,18,6,23,0.00
2013-3-27,53.9,45.8,36.0,45.0,33.8,29.0,75,64,52,30.42,30.27,12,6,17,0.00
2013-3-28,59.7,53.8,41.5,53.0,45.2,40.0,94,74,54,30.34,30.23,12,6,14,0.00
2013-3-29,63.4,57.6,44.3,59.0,53.7,43.0,97,87,75,30.30,30.18,6,3,9,0.00
2013-3-30,68.4,63.9,59.7,62.0,59.7,57.0,91,86,72,30.18,30.00,17,4,17,0.00
2013-3-31,69.7,65.2,62.7,67.0,63.4,61.0,98,94,89,30.04,29.86,17,4,31,0.05
2013-4-1,73.4,63.7,56.3,64.0,59.5,56.0,98,87,60,30.05,29.90,11,3,14,0.02
2013-4-2,68.8,64.2,54.8,64.0,59.8,54.0,98,86,70,30.09,29.95,9,3,10,0.01
2013-4-3,67.9,61.1,54.5,65.0,58.9,51.0,97,92,84,30.00,29.70,38,8,58,0.02
2013-4-4,63.9,55.9,51.9,57.0,52.6,49.0,97,89,75,29.97,29.86,15,5,22,0.02
2013-4-5,69.2,57.3,48.3,50.0,47.8,45.0,90,73,47,30.10,29.96,17,7,23,0.00
2013-4-6,66.2,60.3,49.7,59.0,52.6,45.0,86,76,63,30.15,30.05,12,4,16,0.00
2013-4-7,68.0,65.2,56.8,65.0,61.1,54.0,92,86,78,30.10,29.98,16,5,16,0.00
2013-4-8,71.5,68.7,66.5,69.0,66.7,64.0,96,93,89,30.03,29.93,17,7,21,0.00
2013-4-9,72.1,70.8,69.6,70.0,69.4,69.0,97,95,92,30.03,29.91,15,8,19,0.00
2013-4-10,73.4,72.0,70.6,71.0,70.2,69.0,96,94,90,29.97,29.83,16,11,19,0.00
2013-4-11,74.9,68.8,56.8,73.0,67.1,54.0,96,94,90,29.82,29.59,27,14,34,0.12
2013-4-12,74.9,62.0,49.9,54.0,48.2,45.0,94,65,36,29.95,29.79,17,7,22,0.07
2013-4-13,69.6,64.9,54.5,60.0,52.8,45.0,73,65,57,30.02,29.87,17,7,18,0.03
2013-4-14,69.9,63.6,58.1,66.0,60.2,51.0,96,89,67,29.88,29.72,22,6,67,0.02
2013-4-15,71.6,69.9,66.2,71.0,68.6,64.0,98,95,91,29.98,29.78,15,5,19,0.03
2013-4-16,73.2,71.8,70.7,72.0,71.1,70.0,99,97,95,30.08,29.96,11,6,15,0.02
2013-4-17,73.9,72.6,71.6,73.0,71.4,71.0,98,96,94,30.08,29.96,16,7,19,0.02
2013-4-18,75.6,73.8,72.0,74.0,71.8,70.0,96,93,90,29.96,29.81,20,13,23,0.09
2013-4-19,75.5,54.9,47.5,74.0,51.6,44.0,95,88,74,30.16,29.78,22,8,34,0.03
2013-4-20,66.7,55.0,42.8,50.0,43.6,37.0,94,68,37,30.24,30.09,18,3,18,0.03
2013-4-21,66.7,60.0,49.9,57.0,48.6,42.0,86,67,51,30.18,30.09,11,6,15,0.02
2013-4-22,69.0,63.3,53.9,66.0,59.3,49.0,91,87,77,30.11,30.01,16,8,19,0.02
2013-4-23,71.3,69.5,68.1,68.0,66.1,64.0,92,89,86,30.08,30.00,19,11,21,0.02
2013-4-24,72.1,69.2,58.0,69.0,67.1,57.0,96,93,83,30.12,29.99,23,9,52,0.01
2013-4-25,74.6,62.9,55.0,63.0,55.6,49.0,97,78,57,30.27,30.11,17,6,20,0.02
2013-4-26,69.8,65.0,56.8,67.0,56.9,47.0,91,75,63,30.25,30.18,9,4,14,0.01
2013-4-27,73.3,70.7,67.6,70.0,68.8,67.0,97,93,88,30.18,30.01,17,4,20,0.01
2013-4-28,73.9,70.6,64.5,72.0,68.2,61.0,98,92,80,30.04,29.91,12,3,21,0.01
2013-4-29,74.8,70.8,63.0,70.0,66.5,60.0,93,86,79,29.95,29.85,11,5,13,0.01
2013-4-30,73.5,71.1,66.8,71.0,69.1,66.0,97,93,88,29.92,29.84,22,6,24,0.02
2013-5-1,73.9,70.2,64.9,72.0,67.8,64.0,97,92,80,29.89,29.79,23,8,52,0.02
2013-5-2,71.3,68.6,64.8,68.0,66.0,63.0,96,91,85,29.92,29.81,37,7,72,0.03
2013-5-3,70.6,62.9,48.3,67.0,60.2,44.0,95,91,83,29.97,29.83,21,8,34,0.03
2013-5-4,70.6,58.3,43.5,53.0,42.6,34.0,91,61,29,29.98,29.85,20,7,30,0.03
2013-5-5,65.5,61.9,55.1,59.0,48.0,42.0,83,62,45,30.00,29.82,23,10,28,0.01
2013-5-6,70.9,63.2,52.2,57.0,50.4,45.0,82,64,46,30.00,29.89,22,6,31,0.01
2013-5-7,75.6,67.8,57.5,67.0,59.6,54.0,90,76,47,30.02,29.94,18,4,21,0.00
2013-5-8,76.1,70.2,62.5,67.0,64.4,61.0,95,82,64,30.09,29.98,16,6,20,0.00
2013-5-9,74.0,72.3,70.5,70.0,68.0,66.0,89,86,83,30.12,30.01,16,8,21,0.00
2013-5-10,72.8,68.8,64.3,71.0,63.9,-99.9,95,88,82,30.07,29.87,22,-9,30,0.11
2013-5-11,71.7,68.0,63.2,69.0,65.8,62.0,97,92,87,30.03,29.91,11,2,13,0.03
2013-5-12,79.0,70.6,62.2,68.0,60.1,56.0,96,71,49,30.10,29.99,13,4,17,0.02
2013-5-13,71.2,64.9,54.1,61.0,52.1,45.0,84,64,48,30.27,30.10,11,4,16,0.01
2013-5-14,74.9,69.8,60.7,65.0,60.2,57.0,90,72,54,30.26,30.14,15,5,17,0.02
2013-5-15,75.2,71.3,63.5,66.0,63.1,56.0,92,76,53,30.18,30.01,16,6,16,0.01
2013-5-16,75.8,74.0,71.9,72.0,69.3,65.0,91,85,78,30.03,29.92,17,10,22,0.01
2013-5-17,77.9,76.0,74.2,75.0,73.2,72.0,94,91,86,30.03,29.93,17,10,20,0.00
2013-5-18,78.9,77.5,76.0,75.0,73.8,73.0,92,88,84,30.05,29.97,17,9,20,0.00
2013-5-19,79.6,77.9,76.8,75.0,74.4,73.0,92,89,85,30.01,29.95,15,9,19,0.00
2013-5-20,80.4,78.3,76.4,76.0,74.8,74.0,92,89,84,30.00,29.92,17,10,18,0.00
2013-5-21,80.7,78.5,76.9,75.0,73.7,73.0,90,85,78,29.96,29.83,18,11,21,0.00
2013-5-22,78.7,75.8,67.0,74.0,70.6,65.0,94,84,73,30.02,29.86,18,4,30,0.04
2013-5-23,83.1,78.5,69.9,76.0,72.9,68.0,95,83,72,30.02,29.91,12,4,15,0.04
2013-5-24,87.4,80.0,74.2,76.0,70.0,63.0,91,73,51,30.12,29.99,8,2,14,0.01
2013-5-25,78.8,74.1,65.0,67.0,60.0,52.0,68,62,48,30.20,30.10,11,4,14,0.01
2013-5-26,79.7,75.8,65.9,73.0,65.5,62.0,89,71,55,30.17,30.09,13,4,16,0.00
2013-5-27,79.9,78.8,78.0,74.0,69.2,63.0,85,73,57,30.12,30.03,21,12,22,0.00
2013-5-28,79.3,77.8,76.0,74.0,69.1,65.0,86,75,65,30.06,29.98,19,10,22,0.00
2013-5-29,79.6,78.4,77.0,75.0,74.0,72.0,91,86,83,30.01,29.94,27,15,31,0.03
2013-5-30,79.3,78.5,76.7,75.0,74.2,73.0,92,86,83,30.01,29.94,24,17,29,0.01
2013-5-31,80.5,79.1,78.2,77.0,75.4,75.0,90,88,86,30.01,29.93,20,14,24,0.01
2013-6-1,82.1,80.3,78.3,77.0,76.1,75.0,90,87,84,29.97,29.90,16,10,18,0.00
2013-6-2,81.9,77.9,68.1,77.0,71.9,66.0,93,82,70,29.97,29.84,16,5,32,0.00
2013-6-3,85.5,80.3,72.4,77.0,74.4,70.0,94,82,71,29.90,29.80,10,3,12,0.00
2013-6-4,83.2,81.2,75.1,77.0,75.9,73.0,94,84,78,29.91,29.85,13,7,19,0.01
2013-6-5,82.7,79.6,80.1,77.0,71.7,-99.9,86,80,78,29.91,29.81,15,-12,21,0.01
2013-6-6,87.2,76.6,68.8,75.0,69.7,66.0,94,80,54,29.82,29.71,17,5,22,0.00
2013-6-7,85.9,76.8,70.7,75.0,71.1,69.0,95,83,59,29.87,29.74,11,3,16,0.00
2013-6-8,83.8,79.0,72.2,76.0,73.1,70.0,91,82,74,29.97,29.85,17,6,21,0.00
2013-6-9,80.9,78.9,73.2,76.0,74.2,70.0,93,85,77,29.96,29.89,24,11,31,0.01
2013-6-10,83.0,80.5,72.7,79.0,76.1,70.0,94,86,72,30.02,29.93,23,8,27,0.00
2013-6-11,87.0,83.5,80.6,79.0,77.3,75.0,90,82,68,30.07,29.98,14,6,16,0.00
2013-6-12,87.6,83.7,79.0,78.0,76.6,73.0,92,80,63,30.07,29.98,17,5,18,0.00
2013-6-13,90.3,84.5,78.6,79.0,75.8,70.0,90,76,54,30.03,29.86,19,6,21,0.01
2013-6-14,92.6,85.2,78.5,79.0,74.5,69.0,88,71,51,29.91,29.82,12,3,18,0.01
2013-6-15,86.2,80.9,72.4,79.0,73.3,66.0,82,77,70,29.98,29.89,9,4,11,0.00
2013-6-16,92.7,84.6,77.2,80.0,76.8,72.0,86,77,58,30.01,29.94,20,7,24,0.05
2013-6-17,86.7,83.7,79.3,78.0,76.4,73.0,87,79,70,30.00,29.90,22,8,24,0.02
2013-6-18,89.9,84.3,78.5,78.0,74.3,68.0,86,72,48,29.98,29.86,22,9,26,0.01
2013-6-19,87.1,81.2,74.6,76.0,73.0,70.0,88,76,64,30.00,29.91,11,2,15,0.01
2013-6-20,90.8,79.0,72.8,76.0,72.6,69.0,94,81,55,30.07,29.97,17,3,25,0.02
2013-6-21,84.8,78.1,71.8,77.0,73.1,70.0,93,84,72,30.10,30.01,9,3,13,0.03
2013-6-22,83.8,78.8,73.8,76.0,73.3,71.0,92,83,71,30.09,29.96,11,3,14,0.00
2013-6-23,85.3,80.4,73.0,77.0,74.5,71.0,95,82,71,30.05,29.98,11,4,15,0.00
2013-6-24,85.9,83.8,80.8,77.0,75.7,71.0,83,77,64,30.12,30.03,17,8,19,0.00
2013-6-25,86.3,84.2,82.1,77.0,75.3,73.0,82,75,65,30.09,29.99,14,6,16,0.00
2013-6-26,87.1,84.7,82.3,79.0,76.9,75.0,84,77,68,30.04,29.93,16,9,21,0.00
2013-6-27,92.2,86.2,81.1,81.0,78.1,75.0,87,77,58,29.99,29.88,15,6,17,0.00
2013-6-28,93.5,87.2,82.2,81.0,78.0,75.0,91,75,57,29.91,29.73,15,5,25,0.00
2013-6-29,88.8,83.0,76.6,79.0,74.6,70.0,86,76,63,29.79,29.66,16,5,19,0.01
2013-6-30,92.0,82.3,74.7,75.0,69.7,59.0,92,68,33,29.75,29.68,13,2,21,0.01
2013-7-1,89.2,80.4,71.3,69.0,66.3,63.0,82,64,42,29.88,29.76,10,3,18,0.00
2013-7-2,85.1,79.4,72.5,71.0,68.9,66.0,82,71,58,29.96,29.86,9,3,10,0.00
2013-7-3,84.1,76.5,71.5,75.0,71.5,69.0,95,85,66,30.00,29.89,15,4,18,0.04
2013-7-4,88.4,78.1,72.6,77.0,73.4,71.0,97,86,64,29.95,29.89,21,6,27,0.04
2013-7-5,80.5,77.4,73.8,77.0,73.0,69.0,95,86,75,30.04,29.89,24,10,31,0.00
2013-7-6,79.3,76.8,74.2,76.0,74.0,72.0,95,91,80,30.01,29.93,25,8,28,0.01
2013-7-7,81.2,78.6,75.6,77.0,75.4,73.0,96,90,84,30.09,29.96,13,6,19,0.01
2013-7-8,82.0,78.4,74.6,78.0,74.9,73.0,95,88,84,30.14,30.03,16,3,19,0.01
2013-7-9,84.6,80.8,73.7,78.0,75.4,72.0,96,84,73,30.16,30.06,11,4,13,0.01
2013-7-10,86.8,82.8,78.5,79.0,77.0,74.0,92,83,67,30.08,29.95,16,5,17,0.01
2013-7-11,83.8,78.1,71.0,79.0,74.8,70.0,96,89,78,30.00,29.85,18,4,44,0.01
2013-7-12,87.3,74.9,69.9,79.0,68.5,-99.9,97,85,69,29.91,29.82,14,-20,16,0.01
2013-7-13,84.1,78.4,72.6,78.0,73.8,70.0,94,86,69,29.92,29.81,12,3,19,0.00
2013-7-14,82.6,79.0,72.7,76.0,74.5,71.0,96,86,77,29.99,29.88,12,4,14,0.00
2013-7-15,83.1,80.6,75.7,78.0,75.2,73.0,93,84,78,30.07,29.97,17,6,21,0.00
2013-7-16,82.4,79.1,74.9,78.0,75.3,73.0,95,88,81,30.14,30.03,16,8,22,0.00
2013-7-17,84.2,79.7,74.2,78.0,75.0,72.0,95,86,71,30.18,30.08,11,4,13,0.00
2013-7-18,83.9,79.0,74.4,78.0,74.2,71.0,96,85,70,30.12,29.98,14,4,27,0.00
2013-7-19,83.5,79.8,73.2,77.0,74.8,71.0,95,85,77,30.04,29.93,13,4,16,0.00
2013-7-20,84.6,80.1,74.0,78.0,75.3,73.0,96,86,71,29.98,29.89,18,7,20,0.00
2013-7-21,82.1,80.2,74.2,77.0,75.2,72.0,94,84,77,30.04,29.95,22,9,36,0.00
2013-7-22,85.6,81.4,76.6,80.0,77.0,73.0,93,86,71,30.03,29.97,19,9,34,0.00
2013-7-23,91.2,84.7,79.3,79.0,76.9,73.0,94,78,57,30.03,29.89,19,7,22,0.00
2013-7-24,91.7,84.5,79.3,78.0,76.3,73.0,91,77,57,29.94,29.84,12,4,17,0.00
2013-7-25,90.0,82.2,75.3,77.0,74.4,73.0,93,78,59,29.99,29.86,10,3,15,0.00
2013-7-26,90.0,82.6,74.0,78.0,73.0,67.0,89,74,48,30.03,29.93,11,2,14,0.00
2013-7-27,86.7,81.7,76.0,78.0,76.3,71.0,89,83,64,29.94,29.84,19,6,28,0.00
2013-7-28,87.6,81.1,75.0,77.0,75.1,74.0,95,82,65,29.98,29.84,11,3,17,0.00
2013-7-29,88.8,82.7,76.0,79.0,76.7,74.0,94,82,66,30.07,29.95,7,2,10,0.00
2013-7-30,88.2,84.6,79.7,80.0,77.9,74.0,90,80,65,30.11,30.03,9,2,17,0.00
2013-7-31,91.1,84.9,81.4,80.0,78.1,76.0,89,80,63,30.08,29.94,14,5,17,0.00
2013-8-1,93.8,84.2,77.4,80.0,75.9,72.0,90,77,54,29.98,29.88,10,3,19,0.00
2013-8-2,87.7,82.2,74.0,79.0,75.6,72.0,92,81,72,29.99,29.89,8,3,10,0.00
2013-8-3,92.6,86.1,77.6,80.0,77.2,73.0,94,75,54,30.04,29.95,13,4,15,0.00
2013-8-4,94.8,86.8,80.2,80.0,77.9,74.0,89,75,51,30.06,29.94,17,5,19,0.00
2013-8-5,93.8,84.3,78.8,81.0,77.0,74.0,90,79,60,30.02,29.91,15,4,21,0.02
2013-8-6,91.6,86.0,80.4,81.0,78.1,75.0,88,77,62,29.97,29.87,14,7,16,0.01
2013-8-7,90.0,85.1,79.3,80.0,78.2,76.0,91,80,68,29.95,29.87,10,3,12,0.01
2013-8-8,87.2,85.0,79.5,81.0,78.7,76.0,94,81,74,29.95,29.87,12,4,16,0.00
2013-8-9,86.1,84.1,78.7,79.0,77.5,74.0,91,80,73,30.00,29.89,18,6,22,0.00
2013-8-10,87.4,85.2,82.5,79.0,76.7,74.0,81,75,69,30.06,29.97,21,8,23,0.00
2013-8-11,87.2,85.2,83.0,79.0,76.9,75.0,85,76,71,30.09,30.02,14,7,17,0.00
2013-8-12,87.1,83.8,79.0,80.0,77.8,74.0,93,82,70,30.08,29.99,14,5,17,0.00
2013-8-13,88.5,80.8,75.4,80.0,76.1,73.0,92,86,68,30.02,29.93,37,2,44,0.00
2013-8-14,82.5,77.5,73.3,77.0,74.4,72.0,95,90,80,29.97,29.88,11,3,16,0.00
2013-8-15,86.2,78.8,72.8,76.0,73.3,72.0,98,84,63,29.96,29.88,8,2,11,0.00
2013-8-16,83.3,79.3,73.5,77.0,74.2,71.0,93,84,72,29.95,29.89,12,4,16,0.00
2013-8-17,78.8,75.2,71.8,74.0,72.2,71.0,97,90,82,29.96,29.89,17,5,22,0.00
2013-8-18,82.8,76.3,71.3,77.0,73.5,70.0,97,91,79,29.97,29.88,19,5,24,0.00
2013-8-19,83.4,78.1,72.2,78.0,74.6,71.0,97,89,81,30.02,29.94,11,2,18,0.01
2013-8-20,83.3,80.1,74.8,78.0,76.3,73.0,97,88,76,30.04,29.95,12,3,16,0.00
2013-8-21,83.6,80.4,75.1,78.0,75.3,73.0,94,84,77,30.10,30.00,16,4,28,0.00
2013-8-22,84.3,80.4,73.6,78.0,75.5,72.0,95,85,77,30.07,29.94,12,4,19,0.00
2013-8-23,81.5,78.1,74.0,76.0,74.5,72.0,96,88,80,29.99,29.91,15,6,20,0.00
2013-8-24,80.5,77.4,73.8,76.0,73.5,71.0,96,88,77,30.07,29.94,16,8,19,0.00
2013-8-25,81.3,78.3,74.8,76.0,74.6,73.0,95,88,81,30.14,30.04,20,8,24,0.00
2013-8-26,82.2,78.8,74.6,75.0,73.0,71.0,93,82,71,30.17,30.06,12,5,13,0.00
2013-8-27,83.0,77.3,69.0,71.0,68.7,66.0,89,75,63,30.09,30.00,8,2,10,0.00
2013-8-28,84.7,78.1,69.4,71.0,67.9,66.0,88,72,55,30.06,29.97,7,3,10,0.00
2013-8-29,85.3,80.1,70.6,74.0,70.5,68.0,91,73,57,30.05,29.96,8,2,10,0.00
2013-8-30,88.4,82.4,76.3,75.0,72.5,68.0,90,73,56,30.01,29.89,11,4,15,0.00
2013-8-31,91.0,83.2,77.4,78.0,73.9,70.0,90,74,55,29.95,29.83,13,4,16,0.00
2013-9-1,90.2,84.1,79.0,79.0,77.1,74.0,90,80,61,29.92,29.83,16,6,17,0.00
2013-9-2,88.2,84.7,79.5,80.0,77.2,75.0,90,78,65,29.96,29.84,17,8,21,0.00
2013-9-3,90.0,83.2,78.7,80.0,77.4,75.0,90,83,67,29.96,29.85,12,4,16,0.00
2013-9-4,85.9,81.6,73.9,79.0,76.1,72.0,94,84,73,30.03,29.92,9,3,11,0.01
2013-9-5,86.4,81.8,75.0,78.0,75.9,74.0,96,83,71,30.09,30.00,10,3,12,0.01
2013-9-6,86.2,80.6,74.8,77.0,75.0,73.0,94,83,71,30.07,29.96,7,3,11,0.00
2013-9-7,87.0,81.4,74.4,74.0,72.8,71.0,92,76,60,30.02,29.94,9,4,12,0.00
2013-9-8,85.7,81.1,73.6,77.0,73.9,71.0,94,79,68,29.97,29.91,9,4,11,0.00
2013-9-9,86.8,81.8,74.1,75.0,73.5,71.0,92,76,64,30.02,29.92,8,3,10,0.00
2013-9-10,85.9,81.7,75.3,78.0,74.1,72.0,89,78,65,30.08,29.98,14,6,17,0.00
2013-9-11,86.0,81.7,74.3,77.0,73.5,71.0,90,77,65,30.08,30.00,15,8,18,0.00
2013-9-12,85.4,81.1,73.0,77.0,73.4,70.0,90,78,68,30.01,29.89,13,6,14,0.00
2013-9-13,88.6,82.3,74.4,76.0,74.0,72.0,94,77,60,29.90,29.78,11,4,14,0.00
2013-9-14,84.6,79.7,73.4,75.0,71.4,67.0,88,76,64,29.95,29.82,9,3,13,0.00
2013-9-15,85.2,80.1,71.3,78.0,71.7,63.0,83,75,64,30.02,29.93,10,4,12,0.00
2013-9-16,86.0,80.9,73.0,78.0,74.9,71.0,95,82,71,30.06,29.97,9,4,12,0.00
2013-9-17,85.6,80.8,73.8,78.0,74.9,71.0,93,82,74,30.05,29.93,11,4,12,0.00
2013-9-18,84.0,80.3,76.6,78.0,75.2,73.0,91,84,76,30.03,29.96,14,6,18,0.00
2013-9-19,82.9,79.8,75.5,78.0,75.7,73.0,92,87,78,30.02,29.94,21,10,29,0.00
2013-9-20,84.9,83.0,81.2,79.0,77.4,76.0,87,83,79,29.97,29.80,17,11,21,0.00
2013-9-21,83.0,78.1,71.6,78.0,75.1,70.0,95,90,82,29.80,29.68,28,9,35,0.04
2013-9-22,79.1,73.0,68.5,70.0,67.5,64.0,95,83,70,29.77,29.69,14,6,17,0.64
2013-9-23,82.5,76.2,67.8,80.0,71.6,61.0,94,85,72,29.82,29.76,8,3,13,0.65
2013-9-24,81.5,79.3,75.6,79.0,76.9,75.0,97,92,85,29.84,29.73,18,5,22,0.37
2013-9-25,87.5,78.6,72.5,76.0,73.2,69.0,97,84,59,29.80,29.73,10,4,14,0.37
2013-9-26,87.5,78.6,68.4,70.0,67.1,65.0,89,69,49,29.89,29.77,8,2,13,0.00
2013-9-27,80.5,76.9,72.0,73.0,70.2,68.0,92,80,65,29.99,29.89,11,5,13,0.00
2013-9-28,81.1,76.4,69.2,71.0,67.9,63.0,86,75,62,30.04,29.97,9,5,12,0.00
2013-9-29,80.0,74.4,68.1,71.0,67.8,65.0,90,80,70,30.01,29.91,10,3,12,0.00
2013-9-30,79.8,77.0,71.2,73.0,70.7,67.0,92,81,71,29.95,29.89,11,5,14,0.01
2013-10-1,80.4,77.5,70.7,76.0,72.9,69.0,94,85,73,30.00,29.93,15,5,16,0.00
2013-10-2,80.4,77.6,73.3,76.0,73.8,71.0,94,88,83,30.02,29.94,15,6,17,0.01
2013-10-3,82.1,79.5,74.0,78.0,75.6,72.0,95,88,83,30.01,29.92,21,8,26,0.01
2013-10-4,82.3,80.2,78.6,78.0,75.8,74.0,91,86,80,30.01,29.93,15,6,22,0.01
2013-10-5,81.9,80.7,76.4,78.0,75.9,72.0,90,85,80,29.98,29.88,19,10,25,0.25
2013-10-6,80.3,76.0,67.5,76.0,72.4,60.0,94,88,77,29.88,29.75,20,8,28,0.22
2013-10-7,74.8,66.6,59.4,60.0,54.7,49.0,83,67,43,30.00,29.87,16,7,25,0.22
2013-10-8,77.2,65.9,55.0,61.0,56.3,53.0,92,73,46,30.00,29.93,12,3,14,0.00
2013-10-9,76.2,69.6,60.7,73.0,65.9,57.0,92,88,81,30.06,29.96,11,5,12,0.00
2013-10-10,76.8,72.7,67.4,73.0,69.7,66.0,96,90,85,30.08,29.97,9,4,14,0.00
2013-10-11,79.1,74.9,67.6,74.0,71.2,67.0,96,88,79,30.03,29.94,9,4,12,0.00
2013-10-12,80.3,78.6,77.1,73.0,71.9,70.0,86,80,72,30.06,29.96,11,5,13,0.00
2013-10-13,81.7,76.8,70.4,75.0,72.2,69.0,95,86,75,30.14,30.02,8,2,11,0.00
2013-10-14,79.1,75.0,67.4,71.0,67.7,65.0,92,78,63,30.08,29.99,9,3,12,0.00
2013-10-15,78.9,74.2,68.7,72.0,69.3,66.0,93,85,72,30.03,29.93,12,5,12,0.00
2013-10-16,79.6,77.8,75.4,74.0,70.1,68.0,88,77,73,29.98,29.89,15,6,18,0.00
2013-10-17,81.2,75.6,66.0,75.0,70.5,62.0,93,84,72,29.94,29.87,20,7,26,0.03
2013-10-18,74.1,67.3,63.1,62.0,60.4,58.0,92,79,58,30.00,29.89,13,5,16,0.00
2013-10-19,69.0,64.2,60.4,65.0,60.9,58.0,96,89,77,29.98,29.88,12,4,18,0.12
2013-10-20,71.0,63.2,54.3,61.0,57.3,53.0,95,82,66,30.04,29.95,13,4,16,0.12
2013-10-21,72.3,66.5,60.8,64.0,59.5,56.0,85,78,68,30.03,29.94,10,3,14,0.00
2013-10-22,79.4,69.3,62.1,64.0,59.9,55.0,90,74,47,29.95,29.86,12,4,14,0.00
2013-10-23,74.1,64.3,57.5,58.0,50.0,42.0,87,63,33,30.10,29.95,15,5,20,0.00
2013-10-24,70.8,62.8,52.0,62.0,53.8,45.0,91,73,63,30.20,30.08,6,2,8,0.00
2013-10-25,67.0,59.0,51.5,58.0,46.1,41.0,92,64,39,30.35,30.18,18,6,21,0.00
2013-10-26,67.2,57.5,45.5,55.0,45.8,37.0,78,66,46,30.27,30.13,6,2,11,0.00
2013-10-27,68.9,63.7,54.0,65.0,57.5,47.0,91,80,69,30.14,30.04,4,1,7,0.00
2013-10-28,72.1,68.7,61.4,69.0,65.9,59.0,93,90,87,30.17,30.05,7,1,8,0.00
2013-10-29,72.1,68.7,62.4,69.0,65.9,61.0,95,90,86,30.22,30.14,7,2,9,0.00
2013-10-30,73.6,72.1,69.6,71.0,69.6,68.0,94,91,89,30.17,30.03,10,4,14,0.00
2013-10-31,75.4,73.7,70.1,72.0,71.1,69.0,96,91,87,30.02,29.80,15,9,18,0.49
2013-11-1,76.1,69.1,60.8,71.0,63.5,54.0,96,83,55,29.90,29.77,11,4,21,0.50
2013-11-2,74.2,64.0,55.8,55.0,50.3,44.0,83,63,41,30.12,29.88,14,5,21,0.00
2013-11-3,64.6,56.1,46.9,51.0,46.7,43.0,86,71,57,30.20,30.10,9,4,12,0.00
2013-11-4,68.2,61.9,53.0,62.0,54.3,45.0,82,76,71,30.22,30.12,14,5,16,0.00
2013-11-5,68.2,66.1,63.2,65.0,61.0,58.0,90,83,76,30.20,30.10,15,7,19,0.00
2013-11-6,70.3,66.9,60.0,69.0,64.2,57.0,97,91,80,30.10,30.02,9,4,12,0.00
2013-11-7,70.0,59.3,48.5,69.0,53.3,41.0,97,81,55,30.25,30.01,24,8,29,0.01
2013-11-8,64.7,53.6,44.7,42.0,37.8,33.0,75,57,33,30.30,30.15,15,6,23,0.00
2013-11-9,66.0,58.9,47.2,63.0,52.7,39.0,90,80,67,30.20,30.13,10,3,14,0.00
2013-11-10,72.6,63.5,58.4,61.0,56.0,50.0,84,77,58,30.23,30.14,11,4,14,0.00
2013-11-11,68.5,61.6,54.0,62.0,53.7,46.0,91,76,58,30.21,30.11,9,3,14,0.00
2013-11-12,71.0,57.4,42.7,54.0,47.7,29.0,87,71,51,30.42,30.14,25,11,35,0.00
2013-11-13,54.3,43.6,34.6,29.0,25.5,21.0,61,50,32,30.49,30.37,18,9,26,0.00
2013-11-14,59.6,51.7,38.7,54.0,42.1,26.0,83,70,57,30.37,30.09,12,5,17,0.00
2013-11-15,66.5,61.8,59.0,66.0,59.6,53.0,98,93,78,30.09,29.96,11,4,15,0.15
2013-11-16,65.0,63.0,61.1,65.0,62.7,61.0,99,98,98,30.04,29.95,8,2,11,0.16
2013-11-17,69.2,66.5,63.3,69.0,66.3,63.0,100,99,98,29.97,29.88,11,2,14,0.01
2013-11-18,71.8,65.4,58.2,72.0,60.2,42.0,100,85,51,30.06,29.91,26,3,37,0.02
2013-11-19,62.8,55.1,47.0,43.0,39.8,36.0,74,58,38,30.12,30.00,12,5,19,0.02
2013-11-20,62.8,55.0,42.5,61.0,49.3,35.0,94,81,67,30.09,30.02,10,3,13,0.00
2013-11-21,66.3,62.2,59.6,64.0,60.5,58.0,96,94,90,30.18,30.08,11,5,15,0.00
2013-11-22,68.8,66.1,64.0,68.0,64.7,62.0,99,95,89,30.18,30.10,10,3,17,0.01
2013-11-23,65.3,59.6,49.2,64.0,56.7,41.0,97,90,74,30.27,30.12,18,9,28,0.01
2013-11-24,53.2,46.3,40.4,41.0,29.9,25.0,74,54,34,30.33,30.23,22,10,28,0.00
2013-11-25,63.5,51.2,40.4,63.0,45.9,26.0,99,82,54,30.26,29.80,19,8,24,0.34
2013-11-26,63.9,46.8,42.9,63.0,39.0,-99.9,97,88,89,29.96,29.70,25,-51,39,0.12
2013-11-27,48.7,40.0,32.7,41.0,27.5,-99.9,93,68,44,30.38,29.96,23,-23,29,0.13
2013-11-28,46.1,37.5,29.0,37.0,29.1,24.0,87,73,48,30.46,30.35,8,2,11,0.00
2013-11-29,51.8,42.2,32.5,39.0,32.9,26.0,86,71,46,30.50,30.39,9,4,13,0.00
2013-11-30,57.8,49.1,38.7,54.0,42.3,30.0,97,78,56,30.41,30.22,8,2,13,0.00
2013-12-1,58.0,52.1,44.0,54.0,49.8,43.0,98,92,82,30.24,29.98,9,2,11,0.01
2013-12-2,59.2,57.0,52.5,58.0,54.5,51.0,98,91,78,29.98,29.76,11,1,12,0.00
2013-12-3,64.3,60.8,58.3,62.0,59.9,58.0,99,97,92,29.81,29.72,17,6,18,0.02
2013-12-4,64.9,62.3,59.8,65.0,62.2,60.0,100,100,99,29.93,29.81,10,2,12,0.00
2013-12-5,66.2,63.8,61.2,66.0,63.9,61.0,100,100,100,30.00,29.91,11,4,16,0.00
2013-12-6,67.7,61.8,48.0,68.0,61.8,47.0,100,100,95,30.16,29.92,19,6,26,0.32
2013-12-7,47.5,40.7,40.1,46.0,36.7,-99.9,99,93,94,30.27,30.15,17,-24,24,0.36
2013-12-8,43.6,11.9,41.3,43.0,-60.0,-99.9,99,28,98,30.21,30.00,6,-717,9,0.00
2013-12-9,63.2,39.4,54.8,60.0,4.3,-99.9,99,61,86,30.09,30.01,9,-335,13,0.00
2013-12-10,59.4,37.8,38.6,58.0,16.3,-99.9,99,70,67,30.32,30.01,23,-175,36,0.08
2013-12-11,55.5,47.3,36.9,47.0,39.1,33.0,88,74,57,30.37,30.27,9,3,15,0.00
2013-12-12,55.8,47.6,38.6,39.0,32.2,28.0,73,56,37,30.46,30.34,17,6,22,0.00
2013-12-13,55.5,47.0,35.1,53.0,41.1,26.0,93,80,64,30.34,29.96,8,4,13,0.00
2013-12-14,66.3,51.1,50.0,64.0,36.1,-99.9,97,81,86,30.00,29.80,26,-129,27,0.04
2013-12-15,49.9,42.8,35.7,46.0,33.5,-99.9,92,76,65,30.29,30.01,20,-24,26,0.04
2013-12-16,53.6,42.8,32.6,44.0,37.3,31.0,94,82,60,30.33,30.23,8,1,8,0.00
2013-12-17,59.6,49.4,39.0,48.0,42.1,38.0,98,77,53,30.32,30.20,11,3,11,0.00
2013-12-18,56.1,50.3,42.5,51.0,44.6,38.0,88,81,70,30.34,30.20,8,2,8,0.00
2013-12-19,58.4,54.1,47.6,58.0,52.3,46.0,98,93,89,30.20,30.03,8,2,10,0.00
2013-12-20,63.5,52.2,57.8,63.0,37.3,-99.9,100,84,94,30.08,29.94,10,-142,11,0.00
2013-12-21,65.1,61.8,59.1,65.0,60.8,-99.9,100,99,100,29.93,29.78,13,-5,16,0.00
2013-12-22,67.6,53.2,54.4,68.0,44.6,-99.9,100,90,96,30.11,29.80,25,-80,40,0.79
2013-12-23,55.3,43.1,35.8,55.0,34.1,-99.9,99,83,80,30.41,30.08,17,-55,25,0.96
2013-12-24,51.4,40.2,31.9,33.0,30.9,28.0,91,71,47,30.48,30.35,16,7,20,0.00
2013-12-25,46.8,39.2,30.4,34.0,29.8,26.0,84,70,51,30.38,30.27,10,3,13,0.00
2013-12-26,54.0,44.8,37.5,39.0,32.7,-99.9,79,65,46,30.35,30.24,11,-6,15,0.00
2013-12-27,58.9,50.6,43.1,40.0,35.4,-99.9,76,59,44,30.35,30.23,14,-4,16,0.00
2013-12-28,53.1,14.2,44.5,44.0,-57.0,-99.9,96,26,54,30.24,29.91,11,-696,15,0.31
2013-12-29,56.2,34.4,47.0,50.0,0.8,-99.9,98,62,74,30.09,29.92,7,-321,14,0.00
2013-12-30,55.3,49.8,43.3,51.0,47.1,42.0,97,90,80,30.28,30.08,6,1,13,0.00
2013-12-31,49.6,42.3,42.2,47.0,34.3,-99.9,95,85,85,30.39,30.27,10,-49,15,0.04
2014-1-1,57.5,49.1,42.7,57.0,43.9,-99.9,99,92,92,30.30,30.00,9,-40,10,0.02
2014-1-2,57.0,36.9,36.3,57.0,5.6,-99.9,99,58,59,30.31,29.89,29,-254,34,0.34